Canadon Seco, Argentina
Current Conditions -  °F | °C
As of 7:00 PM on Monday 26 Jan 2015 (Local Time) from SAVC Reporting Station
Scattered Clouds Scattered Clouds  
Wind Chill: 29°   Ceiling: Unl
Heat Index: 29°   Visibility: 6mi
Dew Point:   Wind: 20mph
Humidity: 25%   Direction: 290°WNW
Pressure: 29.47"   Gusts: 31mph
Location:  46.55°S, 67.58°W
Report Text: SAVC 262200Z 29017G27KT 9999 FEW040 SCT070 29/07 Q0998
Loading
Personal Weather Stations






























Interactive Weather Map New forecast layout! Learn more

10-Day Weather Forecast

Advertisements
Track Severe Weather on mobile